Terminal Aerodrome Forecast
Issued by NWS Wakefield, VA

Home | Current Version | Previous Version | Text Only | Print | Product List | Glossary On
Versions: 1 2 3 4 5 6 7 8 9 10 11 12 13 14
000
FTUS41 KAKQ 010401 AAA
TAFRIC
TAF AMD
KRIC 010401Z 0104/0124 22005KT P6SM OVC007
      TEMPO 0107/0111 4SM BR
     FM011300 04005KT P6SM SCT050=

USA.gov is the U.S. government's official web portal to all federal, state and local government web resources and services.